createdAt,value
2022-11-30T00:01:17.936Z,37.05
2022-11-30T00:03:44.786Z,34.35
2022-11-30T00:06:12.753Z,34.58
2022-11-30T00:08:39.572Z,33.63
2022-11-30T00:11:13.613Z,36.08
2022-11-30T00:13:40.595Z,34.72
2022-11-30T00:16:08.500Z,36.45
2022-11-30T00:18:35.814Z,36.00
2022-11-30T00:21:03.419Z,38.05
2022-11-30T00:23:34.978Z,40.28
2022-11-30T00:26:06.005Z,41.08
2022-11-30T00:28:33.731Z,42.22
2022-11-30T00:31:01.184Z,42.75
2022-11-30T00:33:28.630Z,44.80
2022-11-30T00:35:56.243Z,44.20
2022-11-30T00:38:23.106Z,42.95
2022-11-30T00:40:50.035Z,44.80
2022-11-30T00:43:16.895Z,45.58
2022-11-30T00:45:44.442Z,42.53
2022-11-30T00:48:11.243Z,44.05
2022-11-30T00:50:38.378Z,48.30
2022-11-30T00:53:05.164Z,44.58
2022-11-30T00:55:33.529Z,46.47
2022-11-30T00:58:00.875Z,46.45
2022-11-30T01:00:28.378Z,46.55
2022-11-30T01:02:55.793Z,48.05
2022-11-30T01:05:22.929Z,47.00
2022-11-30T01:07:49.876Z,45.15
2022-11-30T01:10:16.792Z,44.15
2022-11-30T01:12:43.717Z,45.15
2022-11-30T01:15:10.792Z,44.88
2022-11-30T01:17:38.073Z,46.28
2022-11-30T01:20:05.579Z,45.30
2022-11-30T01:22:32.515Z,45.35
2022-11-30T01:24:59.767Z,43.80
2022-11-30T01:27:26.583Z,42.28
2022-11-30T01:29:53.411Z,40.33
2022-11-30T01:32:20.244Z,39.00
2022-11-30T01:34:47.316Z,38.25
2022-11-30T01:37:14.355Z,37.95
2022-11-30T01:39:41.192Z,38.17
2022-11-30T01:42:13.396Z,38.65
2022-11-30T01:44:48.423Z,37.63
2022-11-30T01:47:15.531Z,36.13
2022-11-30T01:49:44.690Z,39.28
2022-11-30T01:52:11.519Z,37.45
2022-11-30T01:54:45.220Z,36.95
2022-11-30T01:57:20.215Z,35.97
2022-11-30T01:59:48.380Z,36.97
2022-11-30T02:02:15.308Z,39.47
2022-11-30T02:04:42.296Z,38.17
2022-11-30T02:07:09.482Z,38.10
2022-11-30T02:09:40.344Z,38.35
2022-11-30T02:12:08.372Z,39.97
2022-11-30T02:14:39.930Z,39.22
2022-11-30T02:17:06.737Z,39.70
2022-11-30T02:19:49.805Z,38.95
2022-11-30T02:22:34.724Z,41.00
2022-11-30T02:25:08.160Z,40.97
2022-11-30T02:27:41.050Z,41.33
2022-11-30T02:30:10.126Z,40.92
2022-11-30T02:32:47.675Z,39.85
2022-11-30T02:35:16.453Z,41.17
2022-11-30T02:37:43.860Z,40.75
2022-11-30T02:40:13.578Z,40.88
2022-11-30T02:42:40.435Z,40.22
2022-11-30T02:45:10.439Z,40.13
2022-11-30T02:47:41.590Z,38.75
2022-11-30T02:50:14.428Z,38.22
2022-11-30T02:52:41.630Z,36.67
2022-11-30T02:55:10.508Z,37.53
2022-11-30T02:57:37.379Z,36.50
2022-11-30T03:00:07.194Z,35.13
2022-11-30T03:02:34.412Z,36.30
2022-11-30T03:05:01.367Z,36.80
2022-11-30T03:07:29.697Z,36.30
2022-11-30T03:09:56.718Z,34.92
2022-11-30T03:12:23.619Z,34.88
2022-11-30T03:14:50.444Z,35.40
2022-11-30T03:17:17.654Z,37.75
2022-11-30T03:19:44.409Z,35.42
2022-11-30T03:22:11.255Z,36.40
2022-11-30T03:24:38.064Z,33.63
2022-11-30T03:27:04.960Z,32.65
2022-11-30T03:29:31.855Z,32.38
2022-11-30T03:31:58.771Z,30.77
2022-11-30T03:34:27.494Z,32.47
2022-11-30T03:36:54.570Z,31.42
2022-11-30T03:39:21.391Z,33.00
2022-11-30T03:41:48.257Z,30.23
2022-11-30T03:44:15.135Z,27.88
2022-11-30T03:46:42.046Z,31.67
2022-11-30T03:49:08.942Z,30.48
2022-11-30T03:51:35.692Z,31.73
2022-11-30T03:54:02.530Z,30.45
2022-11-30T03:56:29.848Z,32.58
2022-11-30T03:58:56.746Z,30.13
2022-11-30T04:01:23.928Z,29.75
2022-11-30T04:03:51.438Z,28.35
2022-11-30T04:06:18.782Z,29.90
2022-11-30T04:08:45.625Z,28.20
2022-11-30T04:11:12.562Z,29.15
2022-11-30T04:13:39.920Z,28.42
2022-11-30T04:16:07.984Z,29.50
2022-11-30T04:18:35.744Z,28.77
2022-11-30T04:21:03.391Z,30.05
2022-11-30T04:23:31.592Z,28.17
2022-11-30T04:25:58.893Z,29.85
2022-11-30T04:28:25.809Z,28.55
2022-11-30T04:30:55.195Z,28.75
2022-11-30T04:33:22.068Z,28.83
2022-11-30T04:35:51.643Z,30.17
2022-11-30T04:38:18.586Z,30.48
2022-11-30T04:40:45.461Z,31.77
2022-11-30T04:43:12.753Z,32.08
2022-11-30T04:45:39.719Z,30.77
2022-11-30T04:48:07.040Z,31.52
2022-11-30T04:50:33.937Z,29.48
2022-11-30T04:53:00.863Z,28.92
2022-11-30T04:55:27.707Z,30.83
2022-11-30T04:57:54.537Z,30.98
2022-11-30T05:00:21.418Z,31.70
2022-11-30T05:02:52.991Z,31.60
2022-11-30T05:05:20.233Z,29.58
2022-11-30T05:08:05.243Z,30.88
2022-11-30T05:10:33.854Z,29.20
2022-11-30T05:13:00.595Z,30.35
2022-11-30T05:15:27.382Z,31.80
2022-11-30T05:17:54.142Z,29.23
2022-11-30T05:20:20.930Z,30.50
2022-11-30T05:22:48.757Z,30.40
2022-11-30T05:25:15.614Z,31.73
2022-11-30T05:27:42.407Z,31.23
2022-11-30T05:30:10.691Z,32.15
2022-11-30T05:32:37.456Z,32.08
2022-11-30T05:35:04.383Z,32.45
2022-11-30T05:37:31.200Z,33.85
2022-11-30T05:39:57.976Z,33.75
2022-11-30T05:42:25.060Z,34.03
2022-11-30T05:44:51.881Z,34.33
2022-11-30T05:47:18.758Z,33.72
2022-11-30T05:49:45.526Z,35.05
2022-11-30T05:52:12.408Z,34.45
2022-11-30T05:54:39.271Z,34.58
2022-11-30T05:57:06.021Z,35.22
2022-11-30T05:59:33.058Z,35.67
2022-11-30T06:01:59.964Z,37.28
2022-11-30T06:04:26.861Z,35.75
2022-11-30T06:06:55.734Z,40.65
2022-11-30T06:09:22.904Z,38.17
2022-11-30T06:11:49.686Z,40.10
2022-11-30T06:14:16.513Z,39.45
2022-11-30T06:16:43.257Z,39.63
2022-11-30T06:19:10.099Z,40.25
2022-11-30T06:21:36.863Z,41.60
2022-11-30T06:24:03.709Z,42.28
2022-11-30T06:26:30.407Z,40.72
2022-11-30T06:28:57.206Z,38.97
2022-11-30T06:31:24.015Z,40.25
2022-11-30T06:33:50.890Z,40.95
2022-11-30T06:36:23.576Z,40.05
2022-11-30T06:38:50.827Z,38.30
2022-11-30T06:41:17.822Z,43.00
2022-11-30T06:43:44.587Z,43.25
2022-11-30T06:46:11.483Z,40.15
2022-11-30T06:48:38.420Z,44.13
2022-11-30T06:51:05.835Z,41.30
2022-11-30T06:53:32.698Z,40.95
2022-11-30T06:55:59.471Z,40.25
2022-11-30T06:58:26.229Z,41.28
2022-11-30T07:00:53.091Z,41.28
2022-11-30T07:03:20.013Z,40.00
2022-11-30T07:05:47.157Z,39.53
2022-11-30T07:08:15.027Z,41.67
2022-11-30T07:10:45.197Z,40.65
2022-11-30T07:13:12.558Z,41.53
2022-11-30T07:15:39.850Z,40.53
2022-11-30T07:18:06.673Z,39.30
2022-11-30T07:20:33.648Z,38.08
2022-11-30T07:23:39.207Z,39.15
2022-11-30T07:26:09.658Z,39.75
2022-11-30T07:28:40.719Z,40.42
2022-11-30T07:31:16.614Z,37.90
2022-11-30T07:33:44.092Z,40.05
2022-11-30T07:36:11.183Z,40.22
2022-11-30T07:38:38.597Z,40.17
2022-11-30T07:41:05.625Z,40.25
2022-11-30T07:43:33.253Z,42.22
2022-11-30T07:46:00.745Z,41.40
2022-11-30T07:48:27.624Z,42.03
2022-11-30T07:50:54.540Z,42.58
2022-11-30T07:53:21.487Z,43.60
2022-11-30T07:55:51.540Z,41.33
2022-11-30T07:58:22.276Z,41.95
2022-11-30T08:00:49.126Z,40.08
2022-11-30T08:03:15.994Z,42.72
2022-11-30T08:05:42.768Z,43.17
2022-11-30T08:08:09.552Z,43.67
2022-11-30T08:10:36.368Z,42.38
2022-11-30T08:13:03.144Z,45.65
2022-11-30T08:15:33.046Z,46.88
2022-11-30T08:18:05.441Z,43.92
2022-11-30T08:20:32.422Z,47.42
2022-11-30T08:22:59.558Z,46.00
2022-11-30T08:25:26.354Z,46.08
2022-11-30T08:27:53.109Z,49.58
2022-11-30T08:30:19.924Z,45.03
2022-11-30T08:32:46.657Z,48.25
2022-11-30T08:35:13.426Z,47.70
2022-11-30T08:37:40.393Z,46.33
2022-11-30T08:40:07.414Z,48.58
2022-11-30T08:42:34.257Z,49.13
2022-11-30T08:45:01.533Z,46.15
2022-11-30T08:47:30.347Z,49.50
2022-11-30T08:49:57.959Z,46.20
2022-11-30T08:52:24.754Z,47.40
2022-11-30T08:54:51.883Z,46.05
2022-11-30T08:57:19.903Z,44.72
2022-11-30T08:59:47.130Z,44.83
2022-11-30T09:02:17.568Z,43.97
2022-11-30T09:04:45.011Z,42.03
2022-11-30T09:07:11.946Z,42.08
2022-11-30T09:09:39.300Z,42.33
2022-11-30T09:12:06.937Z,43.00
2022-11-30T09:14:34.112Z,41.13
2022-11-30T09:17:00.848Z,43.58
2022-11-30T09:19:27.669Z,40.28
2022-11-30T09:21:54.524Z,39.67
2022-11-30T09:24:21.354Z,38.75
2022-11-30T09:26:48.261Z,38.90
2022-11-30T09:29:15.050Z,39.15
2022-11-30T09:31:41.855Z,40.67
2022-11-30T09:34:10.882Z,39.65
2022-11-30T09:36:37.664Z,39.70
2022-11-30T09:39:04.581Z,36.35
2022-11-30T09:41:34.458Z,38.65
2022-11-30T09:44:03.984Z,36.28
2022-11-30T09:46:36.953Z,40.53
2022-11-30T09:49:26.900Z,36.92
2022-11-30T09:51:55.702Z,38.60
2022-11-30T09:54:41.093Z,37.97
2022-11-30T09:57:27.767Z,37.78
2022-11-30T09:59:57.331Z,38.03
2022-11-30T10:02:31.758Z,38.33
2022-11-30T10:04:59.393Z,37.17
2022-11-30T10:07:32.074Z,37.70
2022-11-30T10:12:59.511Z,37.17
2022-11-30T10:15:38.520Z,38.15
2022-11-30T10:18:28.687Z,37.53
2022-11-30T10:20:59.196Z,38.47
2022-11-30T10:25:59.415Z,35.95
2022-11-30T10:28:48.862Z,38.97
2022-11-30T10:31:16.475Z,36.67
2022-11-30T10:33:45.693Z,38.35
2022-11-30T10:36:15.287Z,34.55
2022-11-30T10:38:47.827Z,37.42
2022-11-30T10:41:24.160Z,37.38
2022-11-30T10:44:06.860Z,35.97
2022-11-30T10:46:36.678Z,38.33
2022-11-30T10:49:08.226Z,36.15
2022-11-30T10:51:37.106Z,38.60
2022-11-30T10:54:11.713Z,36.33
2022-11-30T10:56:38.620Z,36.33
2022-11-30T10:59:25.730Z,36.85
2022-11-30T11:01:53.796Z,36.67
2022-11-30T11:04:25.525Z,37.67
2022-11-30T11:06:57.209Z,35.97
2022-11-30T11:09:27.732Z,36.35
2022-11-30T11:14:23.283Z,36.35
2022-11-30T11:16:54.151Z,37.17
2022-11-30T11:19:41.741Z,35.05
2022-11-30T11:22:22.076Z,37.15
2022-11-30T11:24:49.928Z,37.28
2022-11-30T11:27:22.303Z,36.95
2022-11-30T11:29:58.273Z,37.80
2022-11-30T11:32:25.349Z,39.67
2022-11-30T11:34:52.557Z,38.70
2022-11-30T11:37:20.394Z,36.13
2022-11-30T11:40:01.281Z,36.10
2022-11-30T11:42:31.512Z,37.55
2022-11-30T11:44:59.794Z,35.72
2022-11-30T11:47:35.709Z,35.90
2022-11-30T11:50:49.888Z,37.28
2022-11-30T11:53:15.615Z,36.85
2022-11-30T11:55:43.628Z,38.28
2022-11-30T11:58:15.718Z,37.65
2022-11-30T12:00:43.140Z,35.65
2022-11-30T12:03:25.062Z,39.28
2022-11-30T12:05:54.351Z,38.47
2022-11-30T12:08:31.645Z,36.47
2022-11-30T12:11:04.334Z,39.00
2022-11-30T12:13:37.455Z,37.58
2022-11-30T12:16:04.616Z,40.08
2022-11-30T12:18:41.306Z,40.63
2022-11-30T12:21:13.816Z,38.05
2022-11-30T12:23:47.845Z,36.95
2022-11-30T12:26:33.302Z,37.88
2022-11-30T12:28:59.994Z,37.20
2022-11-30T12:31:32.890Z,36.67
2022-11-30T12:34:05.716Z,39.20
2022-11-30T12:36:44.295Z,38.55
2022-11-30T12:39:11.199Z,37.65
2022-11-30T12:41:56.695Z,36.53
2022-11-30T12:44:29.952Z,38.30
2022-11-30T12:47:22.215Z,38.88
2022-11-30T12:49:49.137Z,39.88
2022-11-30T12:52:28.932Z,39.55
2022-11-30T12:55:15.651Z,39.35
2022-11-30T12:57:46.478Z,40.47
2022-11-30T13:00:16.865Z,39.38
2022-11-30T13:03:02.796Z,39.47
2022-11-30T13:05:40.606Z,40.70
2022-11-30T13:08:29.409Z,42.40
2022-11-30T13:11:06.601Z,40.70
2022-11-30T13:13:36.216Z,43.55
2022-11-30T13:16:06.239Z,43.58
2022-11-30T13:18:35.328Z,42.85
2022-11-30T13:21:21.942Z,40.90
2022-11-30T13:23:55.757Z,41.25
2022-11-30T13:26:29.197Z,42.75
2022-11-30T13:29:16.757Z,43.63
2022-11-30T13:31:43.628Z,43.33
2022-11-30T13:34:43.021Z,44.80
2022-11-30T13:37:12.809Z,45.15
2022-11-30T13:39:53.004Z,45.67
2022-11-30T13:42:38.269Z,44.92
2022-11-30T13:45:14.338Z,48.42
2022-11-30T13:47:48.269Z,46.97
2022-11-30T13:50:25.440Z,50.38
2022-11-30T13:52:59.560Z,46.50
2022-11-30T13:55:34.028Z,47.05
2022-11-30T13:58:01.649Z,49.40
2022-11-30T14:00:30.276Z,46.20
2022-11-30T14:06:29.003Z,48.58
2022-11-30T14:08:57.024Z,48.05
2022-11-30T14:11:38.088Z,48.90
2022-11-30T14:14:23.836Z,48.38
2022-11-30T14:16:50.956Z,48.05
2022-11-30T14:19:17.984Z,51.03
2022-11-30T14:21:45.321Z,50.58
2022-11-30T14:24:21.482Z,46.60
2022-11-30T14:26:50.006Z,46.75
2022-11-30T14:29:23.482Z,50.03
2022-11-30T14:31:56.690Z,48.38
2022-11-30T14:34:29.054Z,48.10
2022-11-30T14:36:58.814Z,49.13
2022-11-30T14:39:29.049Z,48.42
2022-11-30T14:44:23.270Z,47.88
2022-11-30T14:46:50.808Z,48.60
2022-11-30T14:49:20.352Z,46.22
2022-11-30T14:51:58.932Z,46.33
2022-11-30T14:54:26.112Z,47.03
2022-11-30T14:56:58.222Z,45.97
2022-11-30T14:59:25.314Z,46.15
2022-11-30T15:01:59.236Z,47.08
2022-11-30T15:04:27.802Z,47.47
2022-11-30T15:06:55.709Z,47.30
2022-11-30T15:09:25.860Z,45.45
2022-11-30T15:11:53.242Z,48.10
2022-11-30T15:14:20.410Z,45.72
2022-11-30T15:16:57.505Z,47.85
2022-11-30T15:19:26.515Z,45.53
2022-11-30T15:21:53.995Z,46.78
2022-11-30T15:24:21.658Z,49.08
2022-11-30T15:26:52.754Z,46.15
2022-11-30T15:29:23.748Z,47.28
2022-11-30T15:31:52.154Z,44.65
2022-11-30T15:34:25.416Z,43.67
2022-11-30T15:36:56.651Z,44.88
2022-11-30T15:39:25.023Z,44.25
2022-11-30T15:41:56.743Z,44.42
2022-11-30T15:44:45.459Z,40.13
2022-11-30T15:47:26.491Z,42.92
2022-11-30T15:49:55.723Z,45.30
2022-11-30T15:52:29.335Z,42.05
2022-11-30T15:54:59.040Z,39.97
2022-11-30T15:57:27.173Z,43.60
2022-11-30T16:00:20.304Z,43.92
2022-11-30T16:02:47.548Z,41.13
2022-11-30T16:05:18.401Z,42.97
2022-11-30T16:07:53.387Z,43.15
2022-11-30T16:10:25.076Z,46.90
2022-11-30T16:12:52.934Z,44.70
2022-11-30T16:15:21.535Z,48.72
2022-11-30T16:17:48.402Z,51.97
2022-11-30T16:20:16.271Z,48.13
2022-11-30T16:22:44.590Z,50.22
2022-11-30T16:25:19.504Z,49.63
2022-11-30T16:27:48.176Z,49.80
2022-11-30T16:30:16.598Z,50.80
2022-11-30T16:32:44.397Z,52.28
2022-11-30T16:35:22.252Z,51.88
2022-11-30T16:37:49.545Z,53.92
2022-11-30T16:40:16.890Z,51.38
2022-11-30T16:42:44.039Z,54.88
2022-11-30T16:45:17.901Z,53.97
2022-11-30T16:47:45.180Z,50.85
2022-11-30T16:50:13.158Z,52.42
2022-11-30T16:52:40.467Z,53.15
2022-11-30T16:55:12.832Z,51.47
2022-11-30T16:57:39.899Z,49.33
2022-11-30T17:00:09.076Z,52.55
2022-11-30T17:02:37.906Z,50.20
2022-11-30T17:05:05.138Z,53.45
2022-11-30T17:07:32.222Z,49.67
2022-11-30T17:09:59.218Z,49.40
2022-11-30T17:12:26.325Z,48.65
2022-11-30T17:14:53.424Z,48.25
2022-11-30T17:17:20.369Z,47.58
2022-11-30T17:19:47.373Z,50.50
2022-11-30T17:22:14.220Z,45.15
2022-11-30T17:24:41.385Z,47.58
2022-11-30T17:27:08.523Z,49.65
2022-11-30T17:29:35.623Z,48.63
2022-11-30T17:32:02.609Z,49.83
2022-11-30T17:34:29.639Z,47.03
2022-11-30T17:36:57.313Z,48.47
2022-11-30T17:39:24.511Z,47.75
2022-11-30T17:41:51.861Z,44.35
2022-11-30T17:44:19.338Z,49.90
2022-11-30T17:46:48.747Z,45.78
2022-11-30T17:49:15.744Z,49.93
2022-11-30T17:51:42.803Z,47.80
2022-11-30T17:54:11.217Z,46.83
2022-11-30T17:56:38.275Z,46.95
2022-11-30T17:59:05.332Z,45.53
2022-11-30T18:01:32.524Z,46.92
2022-11-30T18:03:59.841Z,48.92
2022-11-30T18:06:26.893Z,49.08
2022-11-30T18:08:54.330Z,50.28
2022-11-30T18:11:25.684Z,50.38
2022-11-30T18:13:54.176Z,48.30
2022-11-30T18:16:23.327Z,50.50
2022-11-30T18:18:50.554Z,51.53
2022-11-30T18:21:21.661Z,50.15
2022-11-30T18:23:49.305Z,50.65
2022-11-30T18:26:18.209Z,50.95
2022-11-30T18:28:45.716Z,50.63
2022-11-30T18:31:13.503Z,49.95
2022-11-30T18:33:40.556Z,50.45
2022-11-30T18:36:08.067Z,46.25
2022-11-30T18:38:38.072Z,46.92
2022-11-30T18:41:05.874Z,48.60
2022-11-30T18:43:34.015Z,47.53
2022-11-30T18:46:04.800Z,52.08
2022-11-30T18:48:32.027Z,47.20
2022-11-30T18:50:59.075Z,47.03
2022-11-30T18:53:26.746Z,49.08
2022-11-30T18:55:53.677Z,47.90
2022-11-30T18:58:20.736Z,49.70
2022-11-30T19:00:47.644Z,49.28
2022-11-30T19:03:14.921Z,48.45
2022-11-30T19:05:42.291Z,48.33
2022-11-30T19:08:11.510Z,49.38
2022-11-30T19:10:40.689Z,49.25
2022-11-30T19:13:07.821Z,50.92
2022-11-30T19:15:42.233Z,62.70
2022-11-30T19:18:11.124Z,49.85
2022-11-30T19:20:41.600Z,57.08
2022-11-30T19:25:35.127Z,49.75
2022-11-30T19:28:02.123Z,50.38
2022-11-30T19:30:29.360Z,49.20
2022-11-30T19:33:08.295Z,55.17
2022-11-30T19:35:38.754Z,54.55
2022-11-30T19:38:05.651Z,57.92
2022-11-30T19:40:32.954Z,56.78
2022-11-30T19:43:01.317Z,58.58
2022-11-30T19:45:28.219Z,57.85
2022-11-30T19:47:55.295Z,61.05
2022-11-30T19:50:22.822Z,60.38
2022-11-30T19:52:50.304Z,60.63
2022-11-30T19:55:17.310Z,62.95
2022-11-30T19:57:45.119Z,61.78
2022-11-30T20:00:13.623Z,61.55
2022-11-30T20:02:40.659Z,61.88
2022-11-30T20:05:07.706Z,60.97
2022-11-30T20:07:35.724Z,61.35
2022-11-30T20:10:02.641Z,56.63
2022-11-30T20:12:30.176Z,56.97
2022-11-30T20:14:57.168Z,56.28
2022-11-30T20:17:24.143Z,53.13
2022-11-30T20:19:51.064Z,55.88
2022-11-30T20:22:17.931Z,53.13
2022-11-30T20:24:44.946Z,56.42
2022-11-30T20:27:11.963Z,56.33
2022-11-30T20:29:38.963Z,56.80
2022-11-30T20:32:06.673Z,60.38
2022-11-30T20:34:38.675Z,60.03
2022-11-30T20:37:07.961Z,62.38
2022-11-30T20:39:37.183Z,68.20
2022-11-30T20:42:05.898Z,67.28
2022-11-30T20:44:32.741Z,65.45
2022-11-30T20:46:59.825Z,64.72
2022-11-30T20:49:27.187Z,65.53
2022-11-30T20:51:54.205Z,65.43
2022-11-30T20:54:21.237Z,63.85
2022-11-30T20:56:51.249Z,66.18
2022-11-30T21:01:49.383Z,61.13
2022-11-30T21:04:16.340Z,63.38
2022-11-30T21:06:45.844Z,62.78
2022-11-30T21:09:16.818Z,64.80
2022-11-30T21:11:44.342Z,61.35
2022-11-30T21:14:11.269Z,60.65
2022-11-30T21:16:38.254Z,60.83
2022-11-30T21:19:05.115Z,55.03
2022-11-30T21:21:33.191Z,52.17
2022-11-30T21:24:02.047Z,53.80
2022-11-30T21:26:37.306Z,49.72
2022-11-30T21:29:07.074Z,53.35
2022-11-30T21:31:35.348Z,55.22
2022-11-30T21:34:02.378Z,55.40
2022-11-30T21:36:29.366Z,60.35
2022-11-30T21:39:04.506Z,62.92
2022-11-30T21:41:32.426Z,62.28
2022-11-30T21:43:59.294Z,64.85
2022-11-30T21:46:26.194Z,64.13
2022-11-30T21:48:53.269Z,61.67
2022-11-30T21:51:24.696Z,63.90
2022-11-30T21:53:52.947Z,60.88
2022-11-30T21:56:25.054Z,57.88
2022-11-30T21:58:52.270Z,59.10
2022-11-30T22:01:20.323Z,54.80
2022-11-30T22:03:47.726Z,54.38
2022-11-30T22:06:15.809Z,55.50
2022-11-30T22:08:43.057Z,52.45
2022-11-30T22:11:17.391Z,51.53
2022-11-30T22:13:44.430Z,51.00
2022-11-30T22:16:15.523Z,50.05
2022-11-30T22:18:43.297Z,50.53
2022-11-30T22:21:20.247Z,49.90
2022-11-30T22:23:49.377Z,48.38
2022-11-30T22:26:17.879Z,49.88
2022-11-30T22:28:52.876Z,48.53
2022-11-30T22:31:21.750Z,49.90
2022-11-30T22:33:49.172Z,50.85
2022-11-30T22:36:17.546Z,51.15
2022-11-30T22:38:44.846Z,49.15
2022-11-30T22:41:16.322Z,51.17
2022-11-30T22:43:43.702Z,51.45
2022-11-30T22:46:11.940Z,49.63
2022-11-30T22:48:39.159Z,51.45
2022-11-30T22:51:07.551Z,54.50
2022-11-30T22:53:36.235Z,57.90
2022-11-30T22:56:04.478Z,59.83
2022-11-30T22:58:32.005Z,60.28
2022-11-30T23:00:59.564Z,63.28
2022-11-30T23:03:27.846Z,62.28
2022-11-30T23:05:55.466Z,63.15
2022-11-30T23:08:22.369Z,66.50
2022-11-30T23:10:49.243Z,61.03
2022-11-30T23:13:16.275Z,66.43
2022-11-30T23:15:43.305Z,67.32
2022-11-30T23:18:10.326Z,68.93
2022-11-30T23:20:37.458Z,70.18
2022-11-30T23:23:04.394Z,72.80
2022-11-30T23:25:31.389Z,72.72
2022-11-30T23:27:58.346Z,69.70
2022-11-30T23:30:25.277Z,66.82
2022-11-30T23:32:56.012Z,66.35
2022-11-30T23:35:24.116Z,65.32
2022-11-30T23:37:52.180Z,64.95
2022-11-30T23:40:19.488Z,60.85
2022-11-30T23:42:46.373Z,60.55
2022-11-30T23:45:13.291Z,60.92
2022-11-30T23:47:40.324Z,57.72
2022-11-30T23:50:07.804Z,55.97
2022-11-30T23:52:34.801Z,58.53
2022-11-30T23:55:01.859Z,56.00
2022-11-30T23:57:30.212Z,56.50
2022-11-30T23:59:57.084Z,55.65
